Terminal Aerodrome Forecast
Issued by NWS Grand Forks, ND

Home | Current Version | Previous Version | Text Only | Print | Product List | Glossary Off
Versions: 1 2 3 4 5 6 7 8 9 10 11 12 13 14 15 16 17 18 19

776
FTUS43 KFGF 231547 AAA
TAFGFK
TAF AMD
KGFK 231547Z 2316/2412 36010KT P6SM SCT010 OVC035
     FM240200 01010KT P6SM SCT140=

USA.gov is the U.S. government's official web portal to all federal, state and local government web resources and services.